sensor_id;sensor_type;location;lat;lon;timestamp;pressure;altitude;pressure_sealevel;temperature;humidity
35908;BME280;22003;50.320;8.054;2022-08-19T04:01:30;99354.31;;;18.04;92.53
35908;BME280;22003;50.320;8.054;2022-08-19T04:03:57;99352.03;;;17.92;93.78
35908;BME280;22003;50.320;8.054;2022-08-19T04:06:25;99357.38;;;17.61;95.11
35908;BME280;22003;50.320;8.054;2022-08-19T04:08:53;99337.22;;;17.34;95.93
35908;BME280;22003;50.320;8.054;2022-08-19T04:11:22;99370.31;;;17.50;96.39
35908;BME280;22003;50.320;8.054;2022-08-19T04:13:49;99373.97;;;17.49;96.41
35908;BME280;22003;50.320;8.054;2022-08-19T04:16:16;99381.91;;;17.26;97.38
35908;BME280;22003;50.320;8.054;2022-08-19T04:18:42;99376.09;;;17.14;97.30
35908;BME280;22003;50.320;8.054;2022-08-19T04:21:07;99378.63;;;16.91;99.23
35908;BME280;22003;50.320;8.054;2022-08-19T04:23:35;99374.28;;;16.82;100.00
35908;BME280;22003;50.320;8.054;2022-08-19T04:26:03;99376.09;;;17.14;98.53
35908;BME280;22003;50.320;8.054;2022-08-19T04:28:28;99268.16;;;16.42;98.52
35908;BME280;22003;50.320;8.054;2022-08-19T04:30:55;99357.53;;;17.04;99.06
35908;BME280;22003;50.320;8.054;2022-08-19T04:33:24;99387.47;;;17.08;98.13
35908;BME280;22003;50.320;8.054;2022-08-19T04:35:51;99373.91;;;17.18;98.50
35908;BME280;22003;50.320;8.054;2022-08-19T04:38:19;99377.75;;;17.15;98.40
35908;BME280;22003;50.320;8.054;2022-08-19T04:40:50;99367.94;;;16.99;99.57
35908;BME280;22003;50.320;8.054;2022-08-19T04:43:35;99387.00;;;16.96;99.80
35908;BME280;22003;50.320;8.054;2022-08-19T04:46:11;99379.75;;;17.21;98.94
35908;BME280;22003;50.320;8.054;2022-08-19T04:48:38;99374.97;;;17.00;100.00
35908;BME280;22003;50.320;8.054;2022-08-19T04:51:07;99381.81;;;17.03;99.70
35908;BME280;22003;50.320;8.054;2022-08-19T04:53:34;99365.88;;;17.09;99.04
35908;BME280;22003;50.320;8.054;2022-08-19T04:56:14;99375.06;;;17.15;99.51
35908;BME280;22003;50.320;8.054;2022-08-19T04:58:41;99380.59;;;17.13;99.58
35908;BME280;22003;50.320;8.054;2022-08-19T05:01:18;99311.25;;;16.63;100.00
35908;BME280;22003;50.320;8.054;2022-08-19T05:03:43;99332.16;;;16.76;100.00
35908;BME280;22003;50.320;8.054;2022-08-19T05:06:14;99306.44;;;16.50;100.00
35908;BME280;22003;50.320;8.054;2022-08-19T05:08:41;99386.09;;;17.20;100.00
35908;BME280;22003;50.320;8.054;2022-08-19T05:11:16;99386.50;;;17.01;99.40
35908;BME280;22003;50.320;8.054;2022-08-19T05:13:43;99394.16;;;17.04;100.00
35908;BME280;22003;50.320;8.054;2022-08-19T05:16:10;99397.88;;;17.11;100.00
35908;BME280;22003;50.320;8.054;2022-08-19T05:18:36;99370.44;;;16.76;100.00
35908;BME280;22003;50.320;8.054;2022-08-19T05:21:21;99391.34;;;16.81;100.00
35908;BME280;22003;50.320;8.054;2022-08-19T05:24:06;99412.75;;;17.05;100.00
35908;BME280;22003;50.320;8.054;2022-08-19T05:26:36;99400.34;;;17.04;100.00
35908;BME280;22003;50.320;8.054;2022-08-19T05:29:01;99400.72;;;17.01;100.00
35908;BME280;22003;50.320;8.054;2022-08-19T05:31:27;99370.09;;;16.87;100.00
35908;BME280;22003;50.320;8.054;2022-08-19T05:33:52;99410.53;;;17.25;100.00
35908;BME280;22003;50.320;8.054;2022-08-19T05:36:17;99403.84;;;17.21;100.00
35908;BME280;22003;50.320;8.054;2022-08-19T05:38:45;99413.81;;;17.52;100.00
35908;BME280;22003;50.320;8.054;2022-08-19T05:41:12;99416.25;;;17.69;99.16
35908;BME280;22003;50.320;8.054;2022-08-19T05:43:38;99366.56;;;17.67;98.94
35908;BME280;22003;50.320;8.054;2022-08-19T05:46:05;99293.03;;;17.38;98.14
35908;BME280;22003;50.320;8.054;2022-08-19T05:48:33;99405.81;;;18.22;98.50
35908;BME280;22003;50.320;8.054;2022-08-19T05:51:03;99398.91;;;18.28;98.94
35908;BME280;22003;50.320;8.054;2022-08-19T05:53:30;99403.97;;;18.23;97.98
35908;BME280;22003;50.320;8.054;2022-08-19T05:55:55;99400.19;;;18.09;100.00
35908;BME280;22003;50.320;8.054;2022-08-19T05:58:20;99392.41;;;18.22;99.85
35908;BME280;22003;50.320;8.054;2022-08-19T06:00:45;99407.28;;;18.56;97.83
35908;BME280;22003;50.320;8.054;2022-08-19T06:03:11;99408.56;;;18.60;97.63
35908;BME280;22003;50.320;8.054;2022-08-19T06:05:36;99362.84;;;18.30;96.96
35908;BME280;22003;50.320;8.054;2022-08-19T06:08:01;99339.31;;;18.40;97.24
35908;BME280;22003;50.320;8.054;2022-08-19T06:10:27;99402.84;;;18.63;97.72
35908;BME280;22003;50.320;8.054;2022-08-19T06:12:53;99378.69;;;18.63;95.86
35908;BME280;22003;50.320;8.054;2022-08-19T06:15:19;99421.09;;;18.90;95.78
35908;BME280;22003;50.320;8.054;2022-08-19T06:17:45;99401.69;;;19.03;94.64
35908;BME280;22003;50.320;8.054;2022-08-19T06:20:12;99423.72;;;18.98;94.72
35908;BME280;22003;50.320;8.054;2022-08-19T06:22:46;99424.13;;;19.10;93.57
35908;BME280;22003;50.320;8.054;2022-08-19T06:25:13;99431.34;;;19.24;92.17
35908;BME280;22003;50.320;8.054;2022-08-19T06:27:39;99397.63;;;19.07;93.55
35908;BME280;22003;50.320;8.054;2022-08-19T06:30:05;99424.56;;;19.14;93.45
35908;BME280;22003;50.320;8.054;2022-08-19T06:32:31;99437.47;;;19.18;92.27
35908;BME280;22003;50.320;8.054;2022-08-19T06:34:56;99432.09;;;19.18;92.53
35908;BME280;22003;50.320;8.054;2022-08-19T06:37:22;99449.31;;;19.24;91.93
35908;BME280;22003;50.320;8.054;2022-08-19T06:39:48;99464.72;;;19.30;90.84
35908;BME280;22003;50.320;8.054;2022-08-19T06:42:13;99411.25;;;19.20;91.09
35908;BME280;22003;50.320;8.054;2022-08-19T06:44:43;99456.53;;;19.61;89.22
35908;BME280;22003;50.320;8.054;2022-08-19T06:47:12;99463.06;;;20.18;87.57
35908;BME280;22003;50.320;8.054;2022-08-19T06:49:38;99450.94;;;20.58;86.40
35908;BME280;22003;50.320;8.054;2022-08-19T06:52:04;99424.72;;;19.94;86.79
35908;BME280;22003;50.320;8.054;2022-08-19T06:54:30;99463.97;;;20.25;87.09
35908;BME280;22003;50.320;8.054;2022-08-19T06:56:59;99463.69;;;20.49;86.45
35908;BME280;22003;50.320;8.054;2022-08-19T06:59:28;99466.31;;;20.86;83.25
35908;BME280;22003;50.320;8.054;2022-08-19T07:01:57;99477.97;;;20.93;82.80
35908;BME280;22003;50.320;8.054;2022-08-19T07:04:26;99474.19;;;21.08;83.95
35908;BME280;22003;50.320;8.054;2022-08-19T07:07:00;99473.69;;;20.98;82.79
35908;BME280;22003;50.320;8.054;2022-08-19T07:09:27;99475.66;;;21.60;80.51
35908;BME280;22003;50.320;8.054;2022-08-19T07:11:53;99474.53;;;21.48;80.48
35908;BME280;22003;50.320;8.054;2022-08-19T07:14:21;99495.66;;;21.73;80.01
35908;BME280;22003;50.320;8.054;2022-08-19T07:16:48;99482.13;;;22.07;78.18
35908;BME280;22003;50.320;8.054;2022-08-19T07:19:15;99458.44;;;21.96;78.48
35908;BME280;22003;50.320;8.054;2022-08-19T07:21:41;99490.41;;;21.99;78.38
35908;BME280;22003;50.320;8.054;2022-08-19T07:24:07;99477.28;;;21.55;79.69
35908;BME280;22003;50.320;8.054;2022-08-19T07:26:38;99487.28;;;21.61;80.37
35908;BME280;22003;50.320;8.054;2022-08-19T07:29:04;99493.09;;;21.65;79.83
35908;BME280;22003;50.320;8.054;2022-08-19T07:31:29;99488.91;;;21.90;79.65
35908;BME280;22003;50.320;8.054;2022-08-19T07:33:55;99483.69;;;22.23;78.66
35908;BME280;22003;50.320;8.054;2022-08-19T07:36:24;99487.44;;;22.22;78.76
35908;BME280;22003;50.320;8.054;2022-08-19T07:38:51;99496.00;;;22.32;77.42
35908;BME280;22003;50.320;8.054;2022-08-19T07:41:22;99449.06;;;21.51;78.96
35908;BME280;22003;50.320;8.054;2022-08-19T07:43:48;99507.34;;;21.86;80.06
35908;BME280;22003;50.320;8.054;2022-08-19T07:46:14;99393.84;;;21.40;79.38
35908;BME280;22003;50.320;8.054;2022-08-19T07:48:42;99494.63;;;22.63;78.04
35908;BME280;22003;50.320;8.054;2022-08-19T07:51:09;99492.38;;;22.66;77.71
35908;BME280;22003;50.320;8.054;2022-08-19T07:53:35;99427.75;;;22.65;75.90
35908;BME280;22003;50.320;8.054;2022-08-19T07:56:03;99498.47;;;22.34;77.45
35908;BME280;22003;50.320;8.054;2022-08-19T07:58:33;99487.41;;;22.83;76.08
35908;BME280;22003;50.320;8.054;2022-08-19T08:00:59;99487.63;;;22.21;78.21
35908;BME280;22003;50.320;8.054;2022-08-19T08:03:26;99485.31;;;22.72;76.99
35908;BME280;22003;50.320;8.054;2022-08-19T08:06:12;99434.66;;;21.72;79.08
35908;BME280;22003;50.320;8.054;2022-08-19T08:08:55;99448.66;;;22.43;77.12
35908;BME280;22003;50.320;8.054;2022-08-19T08:11:37;99489.34;;;23.36;75.26
35908;BME280;22003;50.320;8.054;2022-08-19T08:14:03;99474.09;;;22.75;76.99
35908;BME280;22003;50.320;8.054;2022-08-19T08:16:33;99447.28;;;22.67;75.89
35908;BME280;22003;50.320;8.054;2022-08-19T08:18:58;99471.22;;;22.16;77.82
35908;BME280;22003;50.320;8.054;2022-08-19T08:21:24;99487.41;;;21.87;79.92
35908;BME280;22003;50.320;8.054;2022-08-19T08:23:49;99485.09;;;22.67;77.64
35908;BME280;22003;50.320;8.054;2022-08-19T08:26:16;99485.72;;;22.14;79.22
35908;BME280;22003;50.320;8.054;2022-08-19T08:28:42;99490.28;;;22.82;77.61
35908;BME280;22003;50.320;8.054;2022-08-19T08:31:07;99496.63;;;22.34;78.05
35908;BME280;22003;50.320;8.054;2022-08-19T08:33:34;99486.31;;;22.64;78.36
35908;BME280;22003;50.320;8.054;2022-08-19T08:35:59;99449.09;;;22.53;76.14
35908;BME280;22003;50.320;8.054;2022-08-19T08:38:25;99484.53;;;22.24;78.66
35908;BME280;22003;50.320;8.054;2022-08-19T08:40:53;99499.75;;;22.03;79.35
35908;BME280;22003;50.320;8.054;2022-08-19T08:43:29;99500.75;;;22.30;78.83
35908;BME280;22003;50.320;8.054;2022-08-19T08:46:44;99509.19;;;22.75;77.70
35908;BME280;22003;50.320;8.054;2022-08-19T08:49:23;99451.56;;;22.28;77.39
35908;BME280;22003;50.320;8.054;2022-08-19T08:54:30;99464.31;;;22.67;76.70
35908;BME280;22003;50.320;8.054;2022-08-19T08:56:56;99424.78;;;22.27;75.13
35908;BME280;22003;50.320;8.054;2022-08-19T08:59:28;99497.81;;;22.93;76.12
35908;BME280;22003;50.320;8.054;2022-08-19T09:01:57;99498.94;;;22.44;76.65
35908;BME280;22003;50.320;8.054;2022-08-19T09:04:23;99467.31;;;22.31;76.88
35908;BME280;22003;50.320;8.054;2022-08-19T09:07:10;99495.75;;;23.48;74.34
35908;BME280;22003;50.320;8.054;2022-08-19T09:09:42;99496.63;;;23.68;73.36
35908;BME280;22003;50.320;8.054;2022-08-19T09:14:57;99499.47;;;23.87;71.71
35908;BME280;22003;50.320;8.054;2022-08-19T09:17:27;99498.03;;;23.84;70.93
35908;BME280;22003;50.320;8.054;2022-08-19T09:20:16;99372.94;;;22.91;70.67
35908;BME280;22003;50.320;8.054;2022-08-19T09:22:42;99447.16;;;23.22;72.59
35908;BME280;22003;50.320;8.054;2022-08-19T09:25:14;99480.63;;;23.34;72.14
35908;BME280;22003;50.320;8.054;2022-08-19T09:27:42;99478.50;;;23.69;70.58
35908;BME280;22003;50.320;8.054;2022-08-19T09:30:12;99461.91;;;23.39;70.55
35908;BME280;22003;50.320;8.054;2022-08-19T09:32:38;99457.94;;;23.28;70.60
35908;BME280;22003;50.320;8.054;2022-08-19T09:35:07;99484.59;;;24.22;67.87
35908;BME280;22003;50.320;8.054;2022-08-19T09:37:33;99487.38;;;24.03;68.99
35908;BME280;22003;50.320;8.054;2022-08-19T09:39:59;99468.09;;;23.53;67.59
35908;BME280;22003;50.320;8.054;2022-08-19T09:42:24;99482.06;;;23.63;67.55
35908;BME280;22003;50.320;8.054;2022-08-19T09:44:50;99426.91;;;23.57;67.34
35908;BME280;22003;50.320;8.054;2022-08-19T09:47:15;99474.00;;;24.14;65.92
35908;BME280;22003;50.320;8.054;2022-08-19T09:49:40;99428.44;;;24.11;63.82
35908;BME280;22003;50.320;8.054;2022-08-19T09:52:09;99433.44;;;24.53;64.54
35908;BME280;22003;50.320;8.054;2022-08-19T09:54:36;99464.59;;;24.23;64.63
35908;BME280;22003;50.320;8.054;2022-08-19T09:57:01;99407.91;;;23.90;65.54
35908;BME280;22003;50.320;8.054;2022-08-19T09:59:28;99463.97;;;24.35;63.61
35908;BME280;22003;50.320;8.054;2022-08-19T10:01:53;99469.53;;;23.82;66.01
35908;BME280;22003;50.320;8.054;2022-08-19T10:04:19;99429.81;;;23.76;66.34
35908;BME280;22003;50.320;8.054;2022-08-19T10:06:46;99467.25;;;24.43;63.97
35908;BME280;22003;50.320;8.054;2022-08-19T10:09:14;99457.91;;;24.26;63.11
35908;BME280;22003;50.320;8.054;2022-08-19T10:11:40;99459.47;;;24.54;62.29
35908;BME280;22003;50.320;8.054;2022-08-19T10:14:06;99396.19;;;24.03;63.67
35908;BME280;22003;50.320;8.054;2022-08-19T10:16:32;99393.75;;;24.40;62.54
35908;BME280;22003;50.320;8.054;2022-08-19T10:18:58;99455.44;;;24.69;63.15
35908;BME280;22003;50.320;8.054;2022-08-19T10:21:26;99458.81;;;24.58;63.06
35908;BME280;22003;50.320;8.054;2022-08-19T10:23:56;99451.75;;;24.89;63.42
35908;BME280;22003;50.320;8.054;2022-08-19T10:26:26;99444.53;;;24.44;63.63
35908;BME280;22003;50.320;8.054;2022-08-19T10:28:52;99443.72;;;24.75;61.89
35908;BME280;22003;50.320;8.054;2022-08-19T10:31:20;99449.13;;;24.44;61.19
35908;BME280;22003;50.320;8.054;2022-08-19T10:33:47;99446.16;;;24.84;60.68
35908;BME280;22003;50.320;8.054;2022-08-19T10:36:16;99439.88;;;25.21;58.45
35908;BME280;22003;50.320;8.054;2022-08-19T10:38:42;99432.44;;;25.10;59.44
35908;BME280;22003;50.320;8.054;2022-08-19T10:41:15;99436.84;;;25.54;57.50
35908;BME280;22003;50.320;8.054;2022-08-19T10:43:42;99436.78;;;26.16;55.63
35908;BME280;22003;50.320;8.054;2022-08-19T10:46:12;99400.91;;;25.96;55.99
35908;BME280;22003;50.320;8.054;2022-08-19T10:48:38;99440.44;;;25.67;56.99
35908;BME280;22003;50.320;8.054;2022-08-19T10:51:04;99419.69;;;25.54;58.30
35908;BME280;22003;50.320;8.054;2022-08-19T10:53:49;99395.38;;;26.51;55.59
35908;BME280;22003;50.320;8.054;2022-08-19T10:56:15;99424.66;;;26.91;54.88
35908;BME280;22003;50.320;8.054;2022-08-19T10:58:59;99436.19;;;27.16;53.81
35908;BME280;22003;50.320;8.054;2022-08-19T11:01:26;99433.97;;;26.23;55.38
35908;BME280;22003;50.320;8.054;2022-08-19T11:03:51;99422.78;;;26.49;55.55
35908;BME280;22003;50.320;8.054;2022-08-19T11:06:17;99373.47;;;25.49;56.15
35908;BME280;22003;50.320;8.054;2022-08-19T11:08:44;99403.56;;;26.32;54.33
35908;BME280;22003;50.320;8.054;2022-08-19T11:11:11;99412.28;;;26.35;54.68
35908;BME280;22003;50.320;8.054;2022-08-19T11:13:39;99381.59;;;25.49;55.82
35908;BME280;22003;50.320;8.054;2022-08-19T11:16:06;99413.88;;;26.84;54.49
35908;BME280;22003;50.320;8.054;2022-08-19T11:18:34;99388.88;;;26.52;53.13
35908;BME280;22003;50.320;8.054;2022-08-19T11:21:19;99414.09;;;26.41;53.33
35908;BME280;22003;50.320;8.054;2022-08-19T11:23:47;99413.66;;;26.97;52.02
35908;BME280;22003;50.320;8.054;2022-08-19T11:26:13;99407.47;;;27.44;50.13
35908;BME280;22003;50.320;8.054;2022-08-19T11:28:39;99409.94;;;27.22;49.51
35908;BME280;22003;50.320;8.054;2022-08-19T11:31:13;99408.75;;;27.76;49.88
35908;BME280;22003;50.320;8.054;2022-08-19T11:33:39;99398.31;;;28.13;50.91
35908;BME280;22003;50.320;8.054;2022-08-19T11:36:04;99403.16;;;28.23;49.64
35908;BME280;22003;50.320;8.054;2022-08-19T11:38:30;99407.63;;;26.83;48.61
35908;BME280;22003;50.320;8.054;2022-08-19T11:41:00;99416.22;;;27.34;50.19
35908;BME280;22003;50.320;8.054;2022-08-19T11:43:25;99400.22;;;27.26;50.39
35908;BME280;22003;50.320;8.054;2022-08-19T11:45:53;99382.44;;;27.94;48.85
35908;BME280;22003;50.320;8.054;2022-08-19T11:48:18;99398.72;;;28.05;49.71
35908;BME280;22003;50.320;8.054;2022-08-19T11:50:48;99395.06;;;28.28;49.37
35908;BME280;22003;50.320;8.054;2022-08-19T11:53:13;99380.75;;;28.33;47.30
35908;BME280;22003;50.320;8.054;2022-08-19T11:55:39;99404.56;;;26.92;49.24
35908;BME280;22003;50.320;8.054;2022-08-19T11:58:05;99380.41;;;26.00;50.49
35908;BME280;22003;50.320;8.054;2022-08-19T12:00:32;99362.50;;;26.82;50.39
35908;BME280;22003;50.320;8.054;2022-08-19T12:02:58;99394.44;;;27.34;49.66
35908;BME280;22003;50.320;8.054;2022-08-19T12:05:23;99389.56;;;26.47;50.45
35908;BME280;22003;50.320;8.054;2022-08-19T12:07:48;99386.13;;;26.10;51.44
35908;BME280;22003;50.320;8.054;2022-08-19T12:10:14;99397.03;;;27.41;50.71
35908;BME280;22003;50.320;8.054;2022-08-19T12:12:40;99340.88;;;26.99;50.33
35908;BME280;22003;50.320;8.054;2022-08-19T12:15:07;99380.91;;;27.04;48.88
35908;BME280;22003;50.320;8.054;2022-08-19T12:17:32;99380.25;;;27.08;49.84
35908;BME280;22003;50.320;8.054;2022-08-19T12:19:58;99324.78;;;26.98;49.98
35908;BME280;22003;50.320;8.054;2022-08-19T12:22:23;99364.66;;;27.91;49.97
35908;BME280;22003;50.320;8.054;2022-08-19T12:24:49;99359.88;;;28.38;48.41
35908;BME280;22003;50.320;8.054;2022-08-19T12:27:16;99364.53;;;28.72;47.63
35908;BME280;22003;50.320;8.054;2022-08-19T12:29:41;99346.66;;;28.47;47.63
35908;BME280;22003;50.320;8.054;2022-08-19T12:32:06;99352.84;;;28.42;46.93
35908;BME280;22003;50.320;8.054;2022-08-19T12:34:34;99369.31;;;27.67;47.08
35908;BME280;22003;50.320;8.054;2022-08-19T12:37:02;99356.22;;;27.05;48.55
35908;BME280;22003;50.320;8.054;2022-08-19T12:39:28;99365.81;;;27.55;49.69
35908;BME280;22003;50.320;8.054;2022-08-19T12:41:55;99316.72;;;27.03;50.46
35908;BME280;22003;50.320;8.054;2022-08-19T12:44:21;99309.78;;;27.82;49.97
35908;BME280;22003;50.320;8.054;2022-08-19T12:46:47;99322.22;;;28.35;47.85
35908;BME280;22003;50.320;8.054;2022-08-19T12:49:14;99355.00;;;28.40;46.88
35908;BME280;22003;50.320;8.054;2022-08-19T12:51:40;99365.34;;;28.55;46.95
35908;BME280;22003;50.320;8.054;2022-08-19T12:54:06;99320.81;;;27.64;48.95
35908;BME280;22003;50.320;8.054;2022-08-19T12:56:31;99369.19;;;28.14;50.07
35908;BME280;22003;50.320;8.054;2022-08-19T12:59:01;99354.06;;;28.97;46.48
35908;BME280;22003;50.320;8.054;2022-08-19T13:01:27;99327.66;;;27.78;46.70
35908;BME280;22003;50.320;8.054;2022-08-19T13:03:55;99366.25;;;27.75;46.16
35908;BME280;22003;50.320;8.054;2022-08-19T13:06:20;99366.97;;;27.59;47.88
35908;BME280;22003;50.320;8.054;2022-08-19T13:08:46;99377.56;;;28.53;47.13
35908;BME280;22003;50.320;8.054;2022-08-19T13:11:14;99372.56;;;28.95;46.61
35908;BME280;22003;50.320;8.054;2022-08-19T13:13:42;99365.38;;;29.23;46.48
35908;BME280;22003;50.320;8.054;2022-08-19T13:16:11;99357.13;;;29.01;46.37
35908;BME280;22003;50.320;8.054;2022-08-19T13:18:37;99378.75;;;28.90;46.98
35908;BME280;22003;50.320;8.054;2022-08-19T13:21:09;99376.81;;;27.72;45.94
35908;BME280;22003;50.320;8.054;2022-08-19T13:23:36;99336.38;;;27.05;47.85
35908;BME280;22003;50.320;8.054;2022-08-19T13:26:04;99377.63;;;27.02;48.16
35908;BME280;22003;50.320;8.054;2022-08-19T13:28:30;99365.81;;;26.43;49.21
35908;BME280;22003;50.320;8.054;2022-08-19T13:31:21;99357.66;;;27.43;49.31
35908;BME280;22003;50.320;8.054;2022-08-19T13:34:06;99358.00;;;27.35;48.63
35908;BME280;22003;50.320;8.054;2022-08-19T13:36:33;99357.84;;;27.53;46.93
35908;BME280;22003;50.320;8.054;2022-08-19T13:38:58;99306.78;;;27.55;46.37
35908;BME280;22003;50.320;8.054;2022-08-19T13:41:24;99352.84;;;27.85;46.48
35908;BME280;22003;50.320;8.054;2022-08-19T13:43:49;99360.38;;;27.20;47.28
35908;BME280;22003;50.320;8.054;2022-08-19T13:46:15;99357.72;;;27.83;46.76
35908;BME280;22003;50.320;8.054;2022-08-19T13:48:41;99350.00;;;27.80;47.35
35908;BME280;22003;50.320;8.054;2022-08-19T13:51:07;99367.44;;;28.08;46.93
35908;BME280;22003;50.320;8.054;2022-08-19T13:53:38;99318.66;;;28.06;46.31
35908;BME280;22003;50.320;8.054;2022-08-19T13:56:14;99362.63;;;28.27;46.91
35908;BME280;22003;50.320;8.054;2022-08-19T13:58:39;99328.50;;;28.70;46.40
35908;BME280;22003;50.320;8.054;2022-08-19T14:01:05;99361.81;;;28.26;46.51
35908;BME280;22003;50.320;8.054;2022-08-19T14:03:32;99332.03;;;28.08;46.42
35908;BME280;22003;50.320;8.054;2022-08-19T14:05:57;99363.88;;;27.67;46.30
35908;BME280;22003;50.320;8.054;2022-08-19T14:08:23;99360.47;;;27.72;46.20
35908;BME280;22003;50.320;8.054;2022-08-19T14:10:49;99349.91;;;28.61;45.28
35908;BME280;22003;50.320;8.054;2022-08-19T14:13:17;99364.53;;;28.88;45.89
35908;BME280;22003;50.320;8.054;2022-08-19T14:15:43;99355.88;;;29.08;46.06
35908;BME280;22003;50.320;8.054;2022-08-19T14:18:08;99366.09;;;28.22;45.41
35908;BME280;22003;50.320;8.054;2022-08-19T14:20:34;99367.34;;;28.03;46.58
35908;BME280;22003;50.320;8.054;2022-08-19T14:23:00;99337.59;;;28.75;45.20
35908;BME280;22003;50.320;8.054;2022-08-19T14:25:27;99331.84;;;28.72;45.25
35908;BME280;22003;50.320;8.054;2022-08-19T14:27:53;99324.78;;;28.92;45.24
35908;BME280;22003;50.320;8.054;2022-08-19T14:30:28;99376.34;;;28.77;44.95
35908;BME280;22003;50.320;8.054;2022-08-19T14:32:55;99367.34;;;29.27;44.96
35908;BME280;22003;50.320;8.054;2022-08-19T14:35:21;99369.91;;;28.83;43.55
35908;BME280;22003;50.320;8.054;2022-08-19T14:37:48;99367.16;;;27.81;44.82
35908;BME280;22003;50.320;8.054;2022-08-19T14:40:17;99364.34;;;27.87;45.98
35908;BME280;22003;50.320;8.054;2022-08-19T14:42:43;99370.81;;;28.72;45.29
35908;BME280;22003;50.320;8.054;2022-08-19T14:45:10;99335.94;;;28.57;45.38
35908;BME280;22003;50.320;8.054;2022-08-19T14:47:36;99377.56;;;28.86;45.77
35908;BME280;22003;50.320;8.054;2022-08-19T14:50:03;99372.81;;;29.27;44.93
35908;BME280;22003;50.320;8.054;2022-08-19T14:52:28;99371.59;;;28.39;46.24
35908;BME280;22003;50.320;8.054;2022-08-19T14:54:53;99387.97;;;29.40;45.24
35908;BME280;22003;50.320;8.054;2022-08-19T14:57:19;99379.00;;;28.72;46.30
35908;BME280;22003;50.320;8.054;2022-08-19T14:59:45;99370.47;;;28.68;46.03
35908;BME280;22003;50.320;8.054;2022-08-19T15:02:10;99378.78;;;28.17;46.46
35908;BME280;22003;50.320;8.054;2022-08-19T15:04:36;99319.59;;;27.83;46.26
35908;BME280;22003;50.320;8.054;2022-08-19T15:07:01;99379.69;;;27.94;46.54
35908;BME280;22003;50.320;8.054;2022-08-19T15:09:32;99374.72;;;27.91;45.64
35908;BME280;22003;50.320;8.054;2022-08-19T15:11:57;99386.47;;;27.68;45.99
35908;BME280;22003;50.320;8.054;2022-08-19T15:14:25;99378.19;;;27.62;45.61
35908;BME280;22003;50.320;8.054;2022-08-19T15:16:51;99340.72;;;28.05;45.35
35908;BME280;22003;50.320;8.054;2022-08-19T15:19:16;99349.91;;;27.75;45.06
35908;BME280;22003;50.320;8.054;2022-08-19T15:21:41;99360.06;;;28.49;45.36
35908;BME280;22003;50.320;8.054;2022-08-19T15:24:06;99363.03;;;28.64;44.23
35908;BME280;22003;50.320;8.054;2022-08-19T15:26:32;99326.59;;;27.68;44.79
35908;BME280;22003;50.320;8.054;2022-08-19T15:28:58;99353.66;;;27.86;44.89
35908;BME280;22003;50.320;8.054;2022-08-19T15:31:25;99359.53;;;27.54;44.90
35908;BME280;22003;50.320;8.054;2022-08-19T15:33:50;99347.09;;;27.70;45.13
35908;BME280;22003;50.320;8.054;2022-08-19T15:36:16;99355.09;;;27.65;44.61
35908;BME280;22003;50.320;8.054;2022-08-19T15:38:41;99366.88;;;28.34;43.77
35908;BME280;22003;50.320;8.054;2022-08-19T15:41:17;99307.72;;;27.49;44.46
35908;BME280;22003;50.320;8.054;2022-08-19T15:43:54;99346.09;;;28.17;44.88
35908;BME280;22003;50.320;8.054;2022-08-19T15:46:22;99343.28;;;27.83;45.02
35908;BME280;22003;50.320;8.054;2022-08-19T15:48:49;99339.72;;;27.82;45.48
35908;BME280;22003;50.320;8.054;2022-08-19T15:51:15;99316.53;;;27.04;45.77
35908;BME280;22003;50.320;8.054;2022-08-19T15:53:41;99281.25;;;27.45;45.27
35908;BME280;22003;50.320;8.054;2022-08-19T15:56:07;99320.66;;;27.07;45.50
35908;BME280;22003;50.320;8.054;2022-08-19T15:58:33;99311.53;;;27.36;45.69
35908;BME280;22003;50.320;8.054;2022-08-19T16:01:17;99319.94;;;27.23;46.15
35908;BME280;22003;50.320;8.054;2022-08-19T16:04:12;99317.34;;;27.05;46.23
35908;BME280;22003;50.320;8.054;2022-08-19T16:06:57;99328.56;;;26.97;45.99
35908;BME280;22003;50.320;8.054;2022-08-19T16:09:26;99330.69;;;27.30;46.85
35908;BME280;22003;50.320;8.054;2022-08-19T16:11:55;99329.28;;;27.27;47.10
35908;BME280;22003;50.320;8.054;2022-08-19T16:14:20;99338.16;;;27.23;46.68
35908;BME280;22003;50.320;8.054;2022-08-19T16:16:46;99325.16;;;27.13;46.72
35908;BME280;22003;50.320;8.054;2022-08-19T16:19:13;99331.78;;;27.69;46.16
35908;BME280;22003;50.320;8.054;2022-08-19T16:21:45;99342.75;;;27.46;46.22
35908;BME280;22003;50.320;8.054;2022-08-19T16:24:13;99328.56;;;27.44;46.81
35908;BME280;22003;50.320;8.054;2022-08-19T16:26:39;99330.69;;;27.30;46.18
35908;BME280;22003;50.320;8.054;2022-08-19T16:29:05;99343.31;;;27.71;45.09
35908;BME280;22003;50.320;8.054;2022-08-19T16:31:32;99336.81;;;27.37;44.56
35908;BME280;22003;50.320;8.054;2022-08-19T16:33:58;99341.75;;;28.04;44.28
35908;BME280;22003;50.320;8.054;2022-08-19T16:36:24;99301.53;;;27.77;44.84
35908;BME280;22003;50.320;8.054;2022-08-19T16:38:50;99334.41;;;27.76;44.40
35908;BME280;22003;50.320;8.054;2022-08-19T16:41:16;99322.38;;;27.48;44.19
35908;BME280;22003;50.320;8.054;2022-08-19T16:43:42;99336.91;;;27.77;44.12
35908;BME280;22003;50.320;8.054;2022-08-19T16:46:08;99346.31;;;27.86;44.10
35908;BME280;22003;50.320;8.054;2022-08-19T16:48:34;99284.28;;;27.48;43.61
35908;BME280;22003;50.320;8.054;2022-08-19T16:51:01;99341.72;;;28.15;44.04
35908;BME280;22003;50.320;8.054;2022-08-19T16:53:31;99307.72;;;28.18;44.04
35908;BME280;22003;50.320;8.054;2022-08-19T16:55:57;99343.41;;;28.96;42.85
35908;BME280;22003;50.320;8.054;2022-08-19T16:58:25;99352.25;;;29.41;42.08
35908;BME280;22003;50.320;8.054;2022-08-19T17:00:52;99351.69;;;30.59;41.05
35908;BME280;22003;50.320;8.054;2022-08-19T17:03:19;99345.31;;;29.94;41.13
35908;BME280;22003;50.320;8.054;2022-08-19T17:05:53;99320.78;;;29.34;41.54
35908;BME280;22003;50.320;8.054;2022-08-19T17:08:20;99363.22;;;28.74;42.94
35908;BME280;22003;50.320;8.054;2022-08-19T17:10:47;99366.56;;;28.19;43.77